N4JP KMIA-KORL
Flight info
| Callsign | N4JP |
|---|---|
| Flight time | 0h 39m |
| Altitude | 30000 |
| Route | FLMGO2 WAPOM MUNGI1 |
| Aircraft | C750/M-SBDE3FGHRWXY/S |
Departure
| Time | 2026-05-05 00:51 |
|---|---|
| Airport | Miami International Airport (KMIA) |
Arrival
| Time | 2026-05-05 01:30 |
|---|---|
| Airport | Orlando Executive Airport (KORL) |
| Time | Latitude | Longitude | Altitude | Speed | Heading |
|---|---|---|---|---|---|
| 2026-05-05 00:28 | 25.80675 | -80.29205 | 13 ft | 0 kts | 174° |
| 2026-05-05 00:45 | 25.80656 | -80.29197 | 13 ft | 5 kts | 145° |
| 2026-05-05 00:45 | 25.80631 | -80.29163 | 13 ft | 6 kts | 126° |
| 2026-05-05 00:46 | 25.80629 | -80.29160 | 13 ft | 0 kts | 127° |
| 2026-05-05 00:46 | 25.80609 | -80.29144 | 12 ft | 6 kts | 152° |
| 2026-05-05 00:47 | 25.80557 | -80.29139 | 13 ft | 9 kts | 181° |
| 2026-05-05 00:47 | 25.80481 | -80.29136 | 14 ft | 12 kts | 185° |
| 2026-05-05 00:47 | 25.80439 | -80.29192 | 15 ft | 10 kts | 266° |
| 2026-05-05 00:47 | 25.80438 | -80.29270 | 15 ft | 11 kts | 268° |
| 2026-05-05 00:48 | 25.80433 | -80.29358 | 14 ft | 12 kts | 266° |
| 2026-05-05 00:48 | 25.80431 | -80.29432 | 14 ft | 9 kts | 269° |
| 2026-05-05 00:48 | 25.80427 | -80.29511 | 14 ft | 12 kts | 267° |
| 2026-05-05 00:48 | 25.80424 | -80.29606 | 16 ft | 13 kts | 268° |
| 2026-05-05 00:49 | 25.80418 | -80.29735 | 17 ft | 21 kts | 269° |
| 2026-05-05 00:49 | 25.80412 | -80.29893 | 15 ft | 18 kts | 265° |
| 2026-05-05 00:49 | 25.80406 | -80.30017 | 14 ft | 14 kts | 269° |
| 2026-05-05 00:49 | 25.80402 | -80.30113 | 15 ft | 10 kts | 253° |
| 2026-05-05 00:50 | 25.80380 | -80.30142 | 15 ft | 2 kts | 206° |
| 2026-05-05 00:50 | 25.80327 | -80.30145 | 14 ft | 14 kts | 178° |
| 2026-05-05 00:50 | 25.80295 | -80.30096 | 14 ft | 8 kts | 83° |
| 2026-05-05 00:50 | 25.80305 | -80.29802 | 13 ft | 94 kts | 87° |
| 2026-05-05 00:51 | 25.80336 | -80.28782 | 210 ft | 149 kts | 86° |
| 2026-05-05 00:51 | 25.80375 | -80.27605 | 948 ft | 158 kts | 88° |
| 2026-05-05 00:51 | 25.80363 | -80.26764 | 1338 ft | 169 kts | 90° |
| 2026-05-05 00:51 | 25.80349 | -80.25397 | 2028 ft | 185 kts | 89° |
| 2026-05-05 00:52 | 25.80389 | -80.23903 | 2736 ft | 200 kts | 86° |
| 2026-05-05 00:52 | 25.80500 | -80.22266 | 3316 ft | 228 kts | 86° |
| 2026-05-05 00:52 | 25.80625 | -80.20409 | 3918 ft | 256 kts | 85° |
| 2026-05-05 00:52 | 25.80942 | -80.18408 | 3847 ft | 276 kts | 68° |
| 2026-05-05 00:53 | 25.82134 | -80.16771 | 3653 ft | 273 kts | 38° |
| 2026-05-05 00:53 | 25.83818 | -80.16001 | 3936 ft | 256 kts | 12° |
| 2026-05-05 00:53 | 25.85637 | -80.15859 | 4497 ft | 268 kts | 2° |
| 2026-05-05 00:53 | 25.87514 | -80.15801 | 5430 ft | 270 kts | 1° |
| 2026-05-05 00:54 | 25.89401 | -80.15793 | 6364 ft | 275 kts | 354° |
| 2026-05-05 00:54 | 25.91273 | -80.16331 | 7208 ft | 278 kts | 339° |
| 2026-05-05 00:54 | 25.93102 | -80.17027 | 8301 ft | 280 kts | 339° |
| 2026-05-05 00:54 | 25.94955 | -80.17685 | 9320 ft | 286 kts | 339° |
| 2026-05-05 00:55 | 25.96875 | -80.18334 | 10258 ft | 291 kts | 339° |
| 2026-05-05 00:55 | 25.98829 | -80.19125 | 10641 ft | 310 kts | 328° |
| 2026-05-05 00:55 | 26.00572 | -80.20684 | 10663 ft | 336 kts | 314° |
| 2026-05-05 00:55 | 26.02329 | -80.22511 | 11168 ft | 347 kts | 314° |
| 2026-05-05 00:56 | 26.04127 | -80.24291 | 12085 ft | 346 kts | 315° |
| 2026-05-05 00:56 | 26.05955 | -80.26068 | 12811 ft | 351 kts | 315° |
| 2026-05-05 00:56 | 26.07785 | -80.27883 | 13617 ft | 354 kts | 314° |
| 2026-05-05 00:56 | 26.09626 | -80.29729 | 14303 ft | 357 kts | 314° |
| 2026-05-05 00:57 | 26.11484 | -80.31576 | 15018 ft | 358 kts | 314° |
| 2026-05-05 00:57 | 26.13353 | -80.33425 | 15728 ft | 361 kts | 314° |
| 2026-05-05 00:57 | 26.15227 | -80.35289 | 16437 ft | 363 kts | 314° |
| 2026-05-05 00:57 | 26.17113 | -80.37169 | 17177 ft | 365 kts | 314° |
| 2026-05-05 00:58 | 26.19014 | -80.39062 | 17942 ft | 368 kts | 314° |
| 2026-05-05 00:58 | 26.20914 | -80.40950 | 18674 ft | 357 kts | 314° |
| 2026-05-05 00:58 | 26.22822 | -80.42684 | 18993 ft | 369 kts | 320° |
| 2026-05-05 00:58 | 26.25133 | -80.44084 | 19003 ft | 382 kts | 329° |
| 2026-05-05 00:59 | 26.27569 | -80.45349 | 19013 ft | 396 kts | 329° |
| 2026-05-05 00:59 | 26.30113 | -80.46711 | 19026 ft | 416 kts | 329° |
| 2026-05-05 00:59 | 26.32781 | -80.48147 | 19019 ft | 434 kts | 329° |
| 2026-05-05 00:59 | 26.35503 | -80.49582 | 19018 ft | 434 kts | 330° |
| 2026-05-05 01:00 | 26.38250 | -80.51029 | 19017 ft | 438 kts | 330° |
| 2026-05-05 01:00 | 26.41008 | -80.52501 | 19017 ft | 440 kts | 329° |
| 2026-05-05 01:00 | 26.43770 | -80.53980 | 19019 ft | 441 kts | 329° |
| 2026-05-05 01:00 | 26.46543 | -80.55455 | 19014 ft | 441 kts | 330° |
| 2026-05-05 01:01 | 26.49397 | -80.56760 | 18999 ft | 447 kts | 336° |
| 2026-05-05 01:01 | 26.52391 | -80.57708 | 19010 ft | 448 kts | 340° |
| 2026-05-05 01:01 | 26.55391 | -80.58649 | 19015 ft | 448 kts | 339° |
| 2026-05-05 01:01 | 26.58342 | -80.59608 | 19018 ft | 448 kts | 339° |
| 2026-05-05 01:02 | 26.61379 | -80.60582 | 19022 ft | 448 kts | 339° |
| 2026-05-05 01:02 | 26.64378 | -80.61523 | 19022 ft | 448 kts | 339° |
| 2026-05-05 01:02 | 26.67344 | -80.62459 | 19020 ft | 448 kts | 339° |
| 2026-05-05 01:02 | 26.70341 | -80.63419 | 19020 ft | 448 kts | 339° |
| 2026-05-05 01:03 | 26.73340 | -80.64378 | 19019 ft | 448 kts | 339° |
| 2026-05-05 01:03 | 26.76340 | -80.65331 | 19024 ft | 448 kts | 339° |
| 2026-05-05 01:03 | 26.79343 | -80.66284 | 19019 ft | 448 kts | 339° |
| 2026-05-05 01:03 | 26.82337 | -80.67240 | 19023 ft | 448 kts | 339° |
| 2026-05-05 01:04 | 26.85337 | -80.68199 | 19025 ft | 448 kts | 339° |
| 2026-05-05 01:04 | 26.91324 | -80.70117 | 19026 ft | 445 kts | 339° |
| 2026-05-05 01:04 | 26.94257 | -80.71216 | 19020 ft | 444 kts | 336° |
| 2026-05-05 01:05 | 26.97184 | -80.72342 | 19027 ft | 444 kts | 336° |
| 2026-05-05 01:05 | 27.00114 | -80.73450 | 19033 ft | 445 kts | 336° |
| 2026-05-05 01:05 | 27.03054 | -80.74549 | 19035 ft | 445 kts | 337° |
| 2026-05-05 01:05 | 27.05985 | -80.75656 | 19038 ft | 445 kts | 336° |
| 2026-05-05 01:06 | 27.08913 | -80.76772 | 19038 ft | 445 kts | 336° |
| 2026-05-05 01:06 | 27.11857 | -80.77889 | 19040 ft | 445 kts | 336° |
| 2026-05-05 01:06 | 27.14793 | -80.78998 | 19048 ft | 445 kts | 337° |
| 2026-05-05 01:06 | 27.17692 | -80.80096 | 19054 ft | 445 kts | 336° |
| 2026-05-05 01:07 | 27.20630 | -80.81214 | 19054 ft | 445 kts | 336° |
| 2026-05-05 01:07 | 27.23557 | -80.82324 | 19021 ft | 436 kts | 337° |
| 2026-05-05 01:07 | 27.26361 | -80.83381 | 18875 ft | 426 kts | 336° |
| 2026-05-05 01:07 | 27.29198 | -80.84469 | 18735 ft | 433 kts | 336° |
| 2026-05-05 01:08 | 27.32066 | -80.85558 | 18600 ft | 436 kts | 337° |
| 2026-05-05 01:08 | 27.35011 | -80.86450 | 18460 ft | 440 kts | 341° |
| 2026-05-05 01:08 | 27.37979 | -80.87306 | 18322 ft | 440 kts | 341° |
| 2026-05-05 01:08 | 27.40931 | -80.88191 | 18144 ft | 439 kts | 340° |
| 2026-05-05 01:09 | 27.43823 | -80.89062 | 17821 ft | 416 kts | 341° |
| 2026-05-05 01:09 | 27.46545 | -80.89866 | 17498 ft | 407 kts | 341° |
| 2026-05-05 01:09 | 27.49288 | -80.90684 | 17188 ft | 408 kts | 341° |
| 2026-05-05 01:09 | 27.52064 | -80.91514 | 16874 ft | 407 kts | 341° |
| 2026-05-05 01:10 | 27.54805 | -80.92330 | 16578 ft | 406 kts | 342° |
| 2026-05-05 01:10 | 27.57531 | -80.93140 | 16284 ft | 405 kts | 342° |
| 2026-05-05 01:10 | 27.60121 | -80.93914 | 16005 ft | 404 kts | 342° |
| 2026-05-05 01:10 | 27.62799 | -80.94713 | 15725 ft | 403 kts | 342° |
| 2026-05-05 01:11 | 27.65509 | -80.95523 | 15439 ft | 402 kts | 342° |
| 2026-05-05 01:11 | 27.68208 | -80.96328 | 15156 ft | 401 kts | 343° |
| 2026-05-05 01:11 | 27.70863 | -80.97120 | 14861 ft | 383 kts | 343° |
| 2026-05-05 01:11 | 27.73377 | -80.97869 | 14574 ft | 368 kts | 343° |
| 2026-05-05 01:12 | 27.75862 | -80.98617 | 14294 ft | 371 kts | 343° |
| 2026-05-05 01:12 | 27.78361 | -80.99367 | 14017 ft | 371 kts | 343° |
| 2026-05-05 01:12 | 27.80854 | -81.00111 | 13731 ft | 370 kts | 343° |
| 2026-05-05 01:12 | 27.83339 | -81.00854 | 13419 ft | 369 kts | 343° |
| 2026-05-05 01:13 | 27.85814 | -81.01597 | 13114 ft | 367 kts | 343° |
| 2026-05-05 01:13 | 27.88279 | -81.02336 | 12806 ft | 365 kts | 343° |
| 2026-05-05 01:13 | 27.90730 | -81.03071 | 12507 ft | 364 kts | 343° |
| 2026-05-05 01:13 | 27.93181 | -81.03812 | 12207 ft | 368 kts | 343° |
| 2026-05-05 01:14 | 27.95595 | -81.04795 | 12034 ft | 354 kts | 337° |
| 2026-05-05 01:14 | 27.97787 | -81.05731 | 12034 ft | 319 kts | 338° |
| 2026-05-05 01:14 | 27.99775 | -81.06556 | 12033 ft | 294 kts | 338° |
| 2026-05-05 01:14 | 28.01662 | -81.07352 | 12038 ft | 293 kts | 337° |
| 2026-05-05 01:15 | 28.03600 | -81.08181 | 12043 ft | 298 kts | 337° |
| 2026-05-05 01:15 | 28.05452 | -81.09015 | 12014 ft | 297 kts | 332° |
| 2026-05-05 01:15 | 28.06989 | -81.10564 | 11556 ft | 300 kts | 302° |
| 2026-05-05 01:15 | 28.07608 | -81.12749 | 11092 ft | 294 kts | 274° |
| 2026-05-05 01:16 | 28.07533 | -81.15028 | 10765 ft | 287 kts | 264° |
| 2026-05-05 01:16 | 28.07318 | -81.17250 | 10461 ft | 283 kts | 263° |
| 2026-05-05 01:16 | 28.07087 | -81.19462 | 10145 ft | 281 kts | 263° |
| 2026-05-05 01:16 | 28.06856 | -81.21658 | 9799 ft | 281 kts | 263° |
| 2026-05-05 01:17 | 28.06628 | -81.23852 | 9421 ft | 279 kts | 263° |
| 2026-05-05 01:17 | 28.06401 | -81.26031 | 9045 ft | 278 kts | 263° |
| 2026-05-05 01:17 | 28.06178 | -81.28196 | 8669 ft | 276 kts | 263° |
| 2026-05-05 01:17 | 28.05959 | -81.30354 | 8293 ft | 275 kts | 263° |
| 2026-05-05 01:18 | 28.05745 | -81.32497 | 7924 ft | 273 kts | 263° |
| 2026-05-05 01:18 | 28.05534 | -81.34629 | 7560 ft | 272 kts | 263° |
| 2026-05-05 01:18 | 28.05325 | -81.36753 | 7137 ft | 271 kts | 263° |
| 2026-05-05 01:18 | 28.05119 | -81.38869 | 6707 ft | 270 kts | 263° |
| 2026-05-05 01:19 | 28.04920 | -81.40967 | 6271 ft | 267 kts | 263° |
| 2026-05-05 01:19 | 28.04727 | -81.43055 | 5821 ft | 265 kts | 263° |
| 2026-05-05 01:19 | 28.04538 | -81.45136 | 5374 ft | 265 kts | 263° |
| 2026-05-05 01:19 | 28.04351 | -81.47186 | 5057 ft | 262 kts | 263° |
| 2026-05-05 01:20 | 28.04572 | -81.49176 | 4993 ft | 260 kts | 292° |
| 2026-05-05 01:20 | 28.05803 | -81.50679 | 4976 ft | 268 kts | 329° |
| 2026-05-05 01:20 | 28.07599 | -81.51262 | 5073 ft | 272 kts | 350° |
| 2026-05-05 01:20 | 28.09498 | -81.51539 | 5108 ft | 277 kts | 352° |
| 2026-05-05 01:21 | 28.11407 | -81.51794 | 5098 ft | 275 kts | 352° |
| 2026-05-05 01:21 | 28.13309 | -81.52049 | 5092 ft | 275 kts | 352° |
| 2026-05-05 01:21 | 28.15220 | -81.52201 | 5083 ft | 276 kts | 359° |
| 2026-05-05 01:21 | 28.17140 | -81.52096 | 5070 ft | 277 kts | 3° |
| 2026-05-05 01:22 | 28.19084 | -81.51945 | 4774 ft | 280 kts | 4° |
| 2026-05-05 01:22 | 28.20975 | -81.51806 | 4463 ft | 265 kts | 4° |
| 2026-05-05 01:22 | 28.22779 | -81.51702 | 4148 ft | 254 kts | 4° |
| 2026-05-05 01:22 | 28.24512 | -81.51636 | 3827 ft | 245 kts | 4° |
| 2026-05-05 01:23 | 28.26186 | -81.51595 | 3517 ft | 237 kts | 3° |
| 2026-05-05 01:23 | 28.27797 | -81.51568 | 3212 ft | 241 kts | 4° |
| 2026-05-05 01:23 | 28.29567 | -81.51546 | 2926 ft | 259 kts | 4° |
| 2026-05-05 01:23 | 28.31364 | -81.51533 | 2645 ft | 256 kts | 3° |
| 2026-05-05 01:24 | 28.33133 | -81.51538 | 2359 ft | 253 kts | 3° |
| 2026-05-05 01:24 | 28.34884 | -81.51554 | 2089 ft | 249 kts | 3° |
| 2026-05-05 01:24 | 28.36572 | -81.51577 | 2078 ft | 239 kts | 3° |
| 2026-05-05 01:24 | 28.38244 | -81.51604 | 2090 ft | 244 kts | 3° |
| 2026-05-05 01:25 | 28.39935 | -81.51453 | 2028 ft | 244 kts | 20° |
| 2026-05-05 01:25 | 28.41433 | -81.50650 | 2088 ft | 229 kts | 32° |
| 2026-05-05 01:25 | 28.42770 | -81.49827 | 2085 ft | 206 kts | 32° |
| 2026-05-05 01:25 | 28.43973 | -81.49099 | 2068 ft | 188 kts | 32° |
| 2026-05-05 01:26 | 28.45104 | -81.48436 | 2077 ft | 180 kts | 32° |
| 2026-05-05 01:26 | 28.46189 | -81.47736 | 2065 ft | 179 kts | 37° |
| 2026-05-05 01:26 | 28.47264 | -81.46961 | 2076 ft | 186 kts | 37° |
| 2026-05-05 01:26 | 28.48365 | -81.46174 | 2044 ft | 190 kts | 37° |
| 2026-05-05 01:27 | 28.49443 | -81.45334 | 1952 ft | 188 kts | 42° |
| 2026-05-05 01:27 | 28.50296 | -81.44263 | 1963 ft | 180 kts | 58° |
| 2026-05-05 01:27 | 28.50880 | -81.43037 | 1842 ft | 174 kts | 68° |
| 2026-05-05 01:27 | 28.51324 | -81.41782 | 1667 ft | 165 kts | 70° |
| 2026-05-05 01:28 | 28.51719 | -81.40643 | 1399 ft | 145 kts | 70° |
| 2026-05-05 01:28 | 28.52084 | -81.39630 | 1186 ft | 134 kts | 69° |
| 2026-05-05 01:28 | 28.52466 | -81.38675 | 964 ft | 132 kts | 68° |
| 2026-05-05 01:28 | 28.52822 | -81.37763 | 924 ft | 124 kts | 68° |
| 2026-05-05 01:29 | 28.53178 | -81.36846 | 741 ft | 129 kts | 68° |
| 2026-05-05 01:29 | 28.53534 | -81.35908 | 551 ft | 127 kts | 70° |
| 2026-05-05 01:29 | 28.53872 | -81.35009 | 350 ft | 121 kts | 69° |
| 2026-05-05 01:29 | 28.54197 | -81.34153 | 179 ft | 117 kts | 68° |
| 2026-05-05 01:30 | 28.54497 | -81.33350 | 115 ft | 99 kts | 68° |
| 2026-05-05 01:30 | 28.54687 | -81.32865 | 112 ft | 38 kts | 66° |
| 2026-05-05 01:30 | 28.54819 | -81.32733 | 113 ft | 14 kts | 36° |
| 2026-05-05 01:30 | 28.54846 | -81.32716 | 112 ft | 2 kts | 21° |
| 2026-05-05 01:31 | 28.54862 | -81.32712 | 112 ft | 2 kts | 5° |
| 2026-05-05 01:31 | 28.54869 | -81.32713 | 112 ft | 3 kts | 355° |
| 2026-05-05 01:31 | 28.54883 | -81.32748 | 113 ft | 8 kts | 252° |
| 2026-05-05 01:31 | 28.54851 | -81.32830 | 113 ft | 15 kts | 245° |
| 2026-05-05 01:32 | 28.54801 | -81.32963 | 114 ft | 21 kts | 246° |
| 2026-05-05 01:32 | 28.54744 | -81.33109 | 114 ft | 19 kts | 246° |
| 2026-05-05 01:32 | 28.54718 | -81.33246 | 114 ft | 18 kts | 265° |
| 2026-05-05 01:32 | 28.54704 | -81.33395 | 112 ft | 20 kts | 263° |
| 2026-05-05 01:33 | 28.54692 | -81.33539 | 113 ft | 16 kts | 264° |
| 2026-05-05 01:33 | 28.54703 | -81.33629 | 112 ft | 10 kts | 304° |
| 2026-05-05 01:33 | 28.54750 | -81.33681 | 113 ft | 10 kts | 331° |
| 2026-05-05 01:33 | 28.54800 | -81.33726 | 113 ft | 9 kts | 309° |
| 2026-05-05 01:34 | 28.54813 | -81.33742 | 111 ft | 0 kts | 315° |